Time;durP1;ratioP1;P1;durP2;ratioP2;P2;SDS_P1;SDS_P2;PMS_P1;PMS_P2;Temp;Humidity;BMP_temperature;BMP_pressure;BME280_temperature;BME280_humidity;BME280_pressure;Samples;Min_cycle;Max_cycle;Signal;HPM_P1;HPM_P2
2022/05/06 00:01:49;;;;;;;52.70;3.45;;;40.30;14.80;;;;;;5014385;28;20044;-65
2022/05/06 00:04:15;;;;;;;12.10;2.47;;;40.30;15.70;;;;;;5020893;28;20026;-67
2022/05/06 00:06:42;;;;;;;46.97;4.97;;;40.20;15.00;;;;;;5015226;28;20036;-68
2022/05/06 00:09:08;;;;;;;20.33;3.10;;;40.20;15.10;;;;;;5017962;28;20388;-66
2022/05/06 00:11:35;;;;;;;19.50;2.70;;;40.00;15.10;;;;;;5009875;28;20209;-64
2022/05/06 00:14:02;;;;;;;20.30;3.58;;;40.00;15.50;;;;;;5016978;28;20029;-64
2022/05/06 00:16:29;;;;;;;24.70;3.17;;;40.00;15.30;;;;;;5019671;28;20383;-64
2022/05/06 00:18:55;;;;;;;13.50;3.65;;;39.90;16.80;;;;;;5017843;28;20446;-64
2022/05/06 00:21:22;;;;;;;14.88;2.78;;;40.00;15.30;;;;;;5012006;28;20127;-65
2022/05/06 00:23:49;;;;;;;20.00;3.47;;;39.90;16.00;;;;;;5010632;28;20388;-65
2022/05/06 00:26:15;;;;;;;18.73;2.90;;;39.80;16.20;;;;;;5015404;28;20048;-64
2022/05/06 00:28:41;;;;;;;184.57;11.50;;;39.70;15.80;;;;;;5026358;28;20170;-65
2022/05/06 00:31:08;;;;;;;54.03;5.28;;;39.70;15.50;;;;;;5011016;28;20038;-65
2022/05/06 00:33:35;;;;;;;23.20;3.55;;;39.70;16.20;;;;;;5001979;28;20128;-66
2022/05/06 00:36:03;;;;;;;16.73;3.15;;;39.60;15.70;;;;;;5021941;28;20050;-66
2022/05/06 00:38:30;;;;;;;19.08;3.30;;;39.60;15.40;;;;;;5018294;28;20073;-65
2022/05/06 00:40:57;;;;;;;25.38;3.47;;;39.50;15.10;;;;;;5019624;28;20056;-64
2022/05/06 00:43:25;;;;;;;19.58;3.40;;;39.40;15.80;;;;;;5015939;28;20025;-65
2022/05/06 00:45:56;;;;;;;15.60;3.20;;;39.40;15.80;;;;;;5012638;28;20452;-66
2022/05/06 00:48:28;;;;;;;24.25;3.33;;;39.30;15.30;;;;;;5041957;28;20793;-66
2022/05/06 00:50:57;;;;;;;24.77;3.10;;;39.20;15.20;;;;;;5014352;28;20033;-65
2022/05/06 00:53:24;;;;;;;21.67;2.95;;;39.10;15.20;;;;;;5005243;28;20447;-65
2022/05/06 00:55:51;;;;;;;22.80;3.15;;;38.90;15.50;;;;;;5023537;28;20546;-65
2022/05/06 00:58:19;;;;;;;28.00;4.05;;;38.80;15.50;;;;;;5011053;28;20026;-65
2022/05/06 01:00:47;;;;;;;25.80;3.08;;;38.60;15.80;;;;;;5019467;28;20044;-67
2022/05/06 01:03:13;;;;;;;29.02;4.28;;;38.40;16.00;;;;;;5024862;28;20033;-67
2022/05/06 01:05:40;;;;;;;18.23;3.30;;;38.20;16.30;;;;;;5017410;28;20064;-67
2022/05/06 01:08:09;;;;;;;25.95;3.83;;;38.00;16.50;;;;;;5020615;28;20053;-65
2022/05/06 01:10:39;;;;;;;14.52;3.33;;;38.00;16.50;;;;;;5021783;28;20025;-65
2022/05/06 01:13:05;;;;;;;20.83;3.55;;;37.90;16.40;;;;;;5021381;28;20025;-65
2022/05/06 01:15:32;;;;;;;29.55;3.40;;;37.70;16.60;;;;;;5021616;28;20021;-64
2022/05/06 01:17:58;;;;;;;19.63;3.75;;;37.70;16.30;;;;;;5022046;28;20029;-67
2022/05/06 01:20:26;;;;;;;20.30;3.50;;;37.70;16.60;;;;;;5019126;28;20116;-66
2022/05/06 01:22:54;;;;;;;18.13;3.22;;;37.40;16.50;;;;;;5022749;28;20053;-66
2022/05/06 01:25:21;;;;;;;27.05;4.15;;;37.30;16.70;;;;;;5022981;28;20026;-65
2022/05/06 01:28:13;;;;;;;17.17;3.63;;;37.20;16.50;;;;;;5028097;28;20017;-65
2022/05/06 01:30:45;;;;;;;25.00;3.63;;;36.90;16.70;;;;;;5015243;28;20109;-66
2022/05/06 01:33:14;;;;;;;19.90;4.05;;;36.80;16.90;;;;;;5024729;28;20025;-66
2022/05/06 01:35:51;;;;;;;31.48;3.90;;;36.80;16.90;;;;;;5005487;28;20053;-65
2022/05/06 01:38:37;;;;;;;22.33;4.40;;;36.70;17.10;;;;;;5021677;28;20487;-67
2022/05/06 01:41:09;;;;;;;28.02;3.90;;;36.60;17.10;;;;;;5023500;28;20026;-64
2022/05/06 01:43:44;;;;;;;54.67;5.25;;;36.50;17.30;;;;;;5023095;28;20029;-66
2022/05/06 01:46:13;;;;;;;19.60;3.33;;;36.40;17.40;;;;;;5026239;28;20110;-66
2022/05/06 01:48:41;;;;;;;23.77;3.38;;;36.10;17.50;;;;;;5017034;28;20018;-66
2022/05/06 01:51:15;;;;;;;27.17;3.55;;;36.00;17.50;;;;;;5025749;28;20022;-66
2022/05/06 01:53:42;;;;;;;20.27;3.55;;;35.90;17.80;;;;;;5020807;28;20500;-65
2022/05/06 01:56:08;;;;;;;20.55;3.88;;;35.80;17.70;;;;;;5023046;28;20480;-67
2022/05/06 01:58:36;;;;;;;24.23;3.80;;;35.80;17.90;;;;;;5026128;28;20635;-67
2022/05/06 02:01:02;;;;;;;28.30;3.90;;;35.70;17.80;;;;;;5005884;28;20031;-66
2022/05/06 02:06:14;;;;;;;36.75;4.13;;;35.60;17.90;;;;;;5020217;28;20182;-67
2022/05/06 02:08:40;;;;;;;36.78;4.20;;;35.50;18.20;;;;;;5016362;28;20388;-65
2022/05/06 02:11:07;;;;;;;34.10;4.05;;;35.50;18.10;;;;;;5014291;28;20033;-64
2022/05/06 02:13:34;;;;;;;36.53;4.00;;;35.30;18.20;;;;;;5017094;28;20029;-67
2022/05/06 02:16:02;;;;;;;34.05;4.22;;;35.20;18.30;;;;;;5017875;28;20041;-62
2022/05/06 02:18:29;;;;;;;36.13;4.28;;;35.10;18.50;;;;;;5015215;28;20032;-65
2022/05/06 02:20:59;;;;;;;31.55;4.28;;;34.90;18.70;;;;;;5022391;28;20022;-65
2022/05/06 02:23:26;;;;;;;47.05;4.53;;;34.90;18.90;;;;;;5022405;28;20119;-64
2022/05/06 02:25:53;;;;;;;33.90;4.70;;;34.80;19.00;;;;;;5017535;28;20056;-63
2022/05/06 02:28:20;;;;;;;59.03;4.78;;;34.70;18.90;;;;;;5020371;28;20025;-66
2022/05/06 02:33:31;;;;;;;48.22;4.88;;;34.50;19.40;;;;;;5016267;28;20546;-67
2022/05/06 02:35:59;;;;;;;54.08;5.82;;;34.30;19.30;;;;;;5013735;28;20103;-68
2022/05/06 02:38:27;;;;;;;44.40;5.20;;;34.00;19.90;;;;;;5015432;28;20490;-66
2022/05/06 02:40:53;;;;;;;49.15;6.20;;;33.80;20.00;;;;;;5016089;28;20042;-62
2022/05/06 02:43:20;;;;;;;21.05;4.13;;;33.80;21.30;;;;;;5014888;28;20045;-68
2022/05/06 02:45:46;;;;;;;46.85;5.60;;;33.80;20.30;;;;;;5015602;28;20042;-67
2022/05/06 02:48:13;;;;;;;45.65;5.05;;;33.70;20.50;;;;;;5013540;28;20074;-66
2022/05/06 02:50:41;;;;;;;26.17;4.95;;;33.70;20.40;;;;;;5018544;28;20513;-66
2022/05/06 02:53:07;;;;;;;38.17;4.45;;;33.70;20.70;;;;;;5023194;28;20070;-68
2022/05/06 02:55:34;;;;;;;33.85;4.95;;;33.60;20.20;;;;;;5032924;28;20040;-65
2022/05/06 02:58:00;;;;;;;41.30;4.38;;;33.60;20.10;;;;;;5015933;28;20126;-67
2022/05/06 03:00:28;;;;;;;35.53;4.88;;;33.50;20.10;;;;;;5014572;28;20043;-65
2022/05/06 03:02:56;;;;;;;31.40;4.63;;;33.50;20.60;;;;;;5013193;28;20064;-65
2022/05/06 03:05:24;;;;;;;23.08;3.47;;;33.50;19.90;;;;;;5016031;28;20050;-66
2022/05/06 03:07:51;;;;;;;16.98;3.83;;;33.30;18.40;;;;;;5001674;28;20148;-65
2022/05/06 03:10:18;;;;;;;17.92;3.53;;;33.30;18.10;;;;;;5018908;28;20049;-67
2022/05/06 03:12:46;;;;;;;12.52;2.75;;;33.20;17.60;;;;;;5009945;28;20411;-66
2022/05/06 03:15:13;;;;;;;15.68;3.50;;;33.20;17.70;;;;;;5012010;28;20050;-66
2022/05/06 03:17:40;;;;;;;15.65;3.28;;;33.20;17.80;;;;;;5011111;28;20089;-65
2022/05/06 03:20:08;;;;;;;15.95;3.42;;;33.10;17.70;;;;;;5013047;28;20040;-65
2022/05/06 03:22:45;;;;;;;14.63;3.00;;;33.10;17.80;;;;;;5011093;28;20047;-66
2022/05/06 03:25:13;;;;;;;10.88;3.15;;;33.00;17.80;;;;;;5015522;28;20460;-67
2022/05/06 03:30:25;;;;;;;17.98;3.53;;;32.90;17.80;;;;;;5014301;28;20057;-67
2022/05/06 03:32:55;;;;;;;17.45;3.30;;;32.90;18.30;;;;;;5012260;28;20586;-67
2022/05/06 03:35:22;;;;;;;15.07;3.10;;;32.80;18.20;;;;;;5003811;28;20081;-65
2022/05/06 03:37:49;;;;;;;13.75;3.28;;;32.70;18.50;;;;;;5013452;28;20054;-67
2022/05/06 03:40:15;;;;;;;13.32;3.00;;;32.60;18.70;;;;;;5014506;28;20504;-66
2022/05/06 03:42:42;;;;;;;14.27;4.68;;;32.40;18.70;;;;;;5017471;28;20132;-67
2022/05/06 03:45:09;;;;;;;17.70;4.32;;;32.30;19.00;;;;;;5013401;28;20050;-66
2022/05/06 03:47:36;;;;;;;22.15;4.57;;;32.30;19.10;;;;;;5005602;28;20068;-66
2022/05/06 03:52:49;;;;;;;18.90;5.10;;;32.10;18.60;;;;;;5015318;28;20114;-67
2022/05/06 03:55:16;;;;;;;11.80;4.85;;;31.90;18.60;;;;;;5012527;28;20069;-65
2022/05/06 03:57:42;;;;;;;19.83;5.70;;;31.80;18.90;;;;;;5014388;28;20406;-66
2022/05/06 04:00:11;;;;;;;25.63;4.70;;;31.80;18.50;;;;;;5013432;28;20046;-67
2022/05/06 04:02:37;;;;;;;17.83;4.60;;;31.70;18.60;;;;;;5013928;28;20041;-68
2022/05/06 04:05:05;;;;;;;18.05;4.40;;;31.60;18.60;;;;;;5015158;28;20055;-65
2022/05/06 04:07:32;;;;;;;15.32;4.40;;;31.50;18.70;;;;;;5014656;28;20472;-69
2022/05/06 04:09:58;;;;;;;27.23;5.30;;;31.50;18.90;;;;;;5020678;28;20110;-66
2022/05/06 04:12:24;;;;;;;19.67;4.38;;;31.40;18.80;;;;;;5012952;28;20078;-65
2022/05/06 04:14:51;;;;;;;26.65;4.78;;;31.40;18.90;;;;;;5003986;28;20055;-65
2022/05/06 04:17:20;;;;;;;19.92;3.95;;;31.30;19.00;;;;;;5014417;28;20046;-67
2022/05/06 04:25:20;;;;;;;14.93;3.42;;;31.00;18.90;;;;;;5015483;28;20052;-66
2022/05/06 04:27:46;;;;;;;25.52;4.25;;;30.90;18.90;;;;;;5012716;28;20483;-64
2022/05/06 04:30:13;;;;;;;17.30;5.00;;;30.80;18.90;;;;;;5016050;28;20058;-66
2022/05/06 04:32:39;;;;;;;15.45;4.47;;;30.80;18.70;;;;;;5014427;28;20067;-66
2022/05/06 04:35:08;;;;;;;15.75;3.80;;;30.70;18.60;;;;;;4996084;28;20083;-65
2022/05/06 04:37:35;;;;;;;19.17;3.85;;;30.70;18.60;;;;;;5016312;28;20053;-66
2022/05/06 04:40:03;;;;;;;12.43;2.88;;;30.60;18.20;;;;;;5017528;28;20058;-66
2022/05/06 04:42:30;;;;;;;18.33;3.58;;;30.60;18.10;;;;;;5018788;28;20124;-66
2022/05/06 04:44:57;;;;;;;15.07;3.72;;;30.50;17.90;;;;;;5017816;28;20112;-65
2022/05/06 04:47:23;;;;;;;15.52;3.50;;;30.50;18.30;;;;;;5014328;28;20146;-66
2022/05/06 04:49:49;;;;;;;15.00;2.88;;;30.50;17.80;;;;;;5015035;28;20068;-64
2022/05/06 04:52:16;;;;;;;19.20;3.15;;;30.50;17.70;;;;;;5016323;28;20070;-66
2022/05/06 04:54:42;;;;;;;19.02;3.67;;;30.40;17.60;;;;;;5020453;28;20057;-66
2022/05/06 04:57:08;;;;;;;13.68;4.07;;;30.40;17.70;;;;;;5018910;28;20062;-66
2022/05/06 04:59:35;;;;;;;20.13;4.05;;;30.40;17.50;;;;;;5019979;28;20139;-65
2022/05/06 05:02:01;;;;;;;21.35;4.13;;;30.30;17.40;;;;;;5015348;28;20076;-67
2022/05/06 05:04:28;;;;;;;17.17;3.08;;;30.30;17.20;;;;;;5014385;28;20103;-66
2022/05/06 05:06:57;;;;;;;17.15;3.38;;;30.30;17.10;;;;;;5018740;28;20555;-65
2022/05/06 05:09:24;;;;;;;12.45;3.45;;;30.20;16.90;;;;;;5015812;28;20476;-64
2022/05/06 05:11:51;;;;;;;15.82;3.70;;;30.20;16.90;;;;;;5016787;28;20124;-64
2022/05/06 05:14:17;;;;;;;13.52;2.83;;;30.10;16.90;;;;;;5017829;28;20157;-66
2022/05/06 05:16:43;;;;;;;13.25;2.90;;;30.10;16.60;;;;;;5014628;28;20105;-68
2022/05/06 05:19:10;;;;;;;17.35;3.40;;;30.00;16.50;;;;;;5015276;28;20279;-66
2022/05/06 05:21:36;;;;;;;17.45;3.92;;;30.10;16.50;;;;;;5016018;28;20080;-66
2022/05/06 05:24:03;;;;;;;22.08;4.10;;;30.00;16.60;;;;;;4999534;28;20053;-66
2022/05/06 05:26:29;;;;;;;19.52;3.40;;;30.00;16.50;;;;;;5015847;28;20132;-66
2022/05/06 05:28:56;;;;;;;16.52;3.83;;;29.90;16.40;;;;;;5018963;28;20054;-64
2022/05/06 05:31:22;;;;;;;20.33;4.05;;;29.90;16.40;;;;;;5014992;28;20516;-65
2022/05/06 05:33:49;;;;;;;12.35;3.22;;;29.80;16.30;;;;;;5014768;28;20452;-65
2022/05/06 05:36:15;;;;;;;15.15;3.72;;;29.80;16.20;;;;;;5017449;28;20092;-65
2022/05/06 05:38:41;;;;;;;17.85;3.47;;;29.70;16.20;;;;;;5014330;28;20053;-63
2022/05/06 05:41:08;;;;;;;18.95;3.80;;;29.70;16.20;;;;;;5014350;28;20125;-64
2022/05/06 05:49:03;;;;;;;17.73;4.50;;;29.50;16.20;;;;;;5016360;28;20088;-65
2022/05/06 05:51:32;;;;;;;10.27;2.67;;;29.50;16.20;;;;;;5019076;28;20133;-64
2022/05/06 05:53:59;;;;;;;14.75;2.70;;;29.40;16.20;;;;;;5013896;28;20086;-65
2022/05/06 05:56:25;;;;;;;15.15;2.90;;;29.30;16.10;;;;;;5022180;28;20508;-63
2022/05/06 05:58:52;;;;;;;11.50;2.92;;;29.30;16.10;;;;;;5023834;28;20071;-63
2022/05/06 06:01:21;;;;;;;15.13;2.90;;;29.20;16.10;;;;;;5019362;28;20548;-66
2022/05/06 06:03:47;;;;;;;11.85;2.60;;;29.20;16.20;;;;;;5020940;28;20163;-65
2022/05/06 06:06:13;;;;;;;17.38;5.03;;;29.10;16.10;;;;;;5021986;28;20433;-64
2022/05/06 06:08:40;;;;;;;17.27;3.60;;;29.10;16.10;;;;;;5023044;28;20434;-63
2022/05/06 06:11:06;;;;;;;21.45;3.45;;;29.10;16.00;;;;;;5002636;28;20701;-64
2022/05/06 06:13:32;;;;;;;14.65;2.92;;;29.10;16.10;;;;;;5021940;28;20048;-64
2022/05/06 06:15:59;;;;;;;12.40;3.00;;;29.10;16.10;;;;;;5020187;28;20143;-63
2022/05/06 06:18:27;;;;;;;15.85;3.20;;;29.10;16.20;;;;;;5007058;28;20061;-64
2022/05/06 06:20:56;;;;;;;15.00;3.97;;;29.10;16.20;;;;;;5003559;28;20092;-65
2022/05/06 06:23:24;;;;;;;13.52;3.65;;;29.00;16.20;;;;;;5020497;28;20155;-68
2022/05/06 06:25:50;;;;;;;14.07;3.17;;;29.10;16.30;;;;;;5021605;28;20057;-66
2022/05/06 06:28:17;;;;;;;19.17;2.90;;;29.00;16.40;;;;;;5025255;28;20083;-63
2022/05/06 06:30:43;;;;;;;14.05;2.85;;;29.00;16.50;;;;;;5023029;28;20098;-64
2022/05/06 06:33:10;;;;;;;16.15;3.25;;;29.00;16.50;;;;;;5020759;28;20081;-65
2022/05/06 06:35:36;;;;;;;18.48;3.90;;;29.00;16.50;;;;;;5022311;28;20568;-65
2022/05/06 06:38:03;;;;;;;15.70;3.38;;;29.00;16.60;;;;;;5021357;28;20386;-66
2022/05/06 06:40:29;;;;;;;10.95;3.78;;;28.90;16.70;;;;;;5022261;28;20046;-65
2022/05/06 06:43:02;;;;;;;13.48;4.68;;;28.90;16.70;;;;;;5020518;28;20064;-64
2022/05/06 06:45:28;;;;;;;23.58;7.00;;;28.80;16.40;;;;;;5017511;28;20441;-66
2022/05/06 06:47:55;;;;;;;27.02;6.78;;;28.80;16.40;;;;;;5023213;28;20551;-64
2022/05/06 06:50:24;;;;;;;32.22;7.38;;;28.80;16.50;;;;;;5022051;28;20092;-64
2022/05/06 06:52:51;;;;;;;23.15;8.40;;;28.80;16.40;;;;;;5022077;28;20086;-65
2022/05/06 06:55:18;;;;;;;39.03;12.60;;;28.80;16.40;;;;;;5021293;28;20064;-64
2022/05/06 06:57:45;;;;;;;35.42;12.40;;;28.80;16.30;;;;;;5019921;28;20052;-64
2022/05/06 07:00:12;;;;;;;27.90;9.55;;;28.80;16.40;;;;;;5021311;28;20071;-64
2022/05/06 07:02:45;;;;;;;19.83;8.38;;;28.70;16.40;;;;;;5020231;28;20076;-65
2022/05/06 07:05:12;;;;;;;24.38;8.25;;;28.70;16.50;;;;;;5022312;28;20147;-63
2022/05/06 07:13:25;;;;;;;30.13;8.52;;;28.60;16.50;;;;;;4988087;28;20565;-65
2022/05/06 07:15:51;;;;;;;22.20;6.93;;;28.50;16.40;;;;;;5016556;28;20170;-65
2022/05/06 07:18:18;;;;;;;19.75;5.30;;;28.50;16.50;;;;;;5020361;28;20063;-65
2022/05/06 07:20:44;;;;;;;17.33;4.28;;;28.40;16.50;;;;;;5021288;28;20083;-65
2022/05/06 07:23:10;;;;;;;24.48;4.47;;;28.40;16.60;;;;;;5007069;28;20120;-66
2022/05/06 07:25:37;;;;;;;18.15;3.38;;;28.40;16.60;;;;;;5019966;28;20538;-65
2022/05/06 07:28:06;;;;;;;15.43;3.33;;;28.30;16.70;;;;;;5002707;28;20064;-64
2022/05/06 07:30:32;;;;;;;13.52;2.88;;;28.30;16.80;;;;;;5021537;28;20063;-65
2022/05/06 07:32:58;;;;;;;20.95;3.50;;;28.20;16.90;;;;;;5020281;28;20208;-67
2022/05/06 07:35:25;;;;;;;47.03;4.20;;;28.20;16.90;;;;;;5021316;28;20099;-64
2022/05/06 07:37:51;;;;;;;12.82;3.03;;;28.20;17.00;;;;;;5021418;28;20088;-63
2022/05/06 07:40:18;;;;;;;14.80;2.42;;;28.20;17.00;;;;;;5022504;28;20081;-63
2022/05/06 07:42:45;;;;;;;10.55;2.20;;;28.10;17.10;;;;;;5017764;28;20062;-64
2022/05/06 07:45:11;;;;;;;16.65;2.83;;;28.10;17.40;;;;;;4991634;28;20082;-64
2022/05/06 07:47:38;;;;;;;20.88;2.90;;;28.10;17.50;;;;;;5002040;28;20102;-64
2022/05/06 07:50:06;;;;;;;9.15;2.70;;;28.00;17.80;;;;;;5017975;28;20167;-64
2022/05/06 07:52:32;;;;;;;12.95;3.33;;;28.00;18.10;;;;;;5021792;28;20090;-63
2022/05/06 07:54:59;;;;;;;15.75;3.78;;;27.90;17.90;;;;;;5021242;28;20148;-64
2022/05/06 07:57:25;;;;;;;19.40;4.63;;;27.80;18.10;;;;;;5004160;28;20066;-64
2022/05/06 07:59:51;;;;;;;15.75;3.10;;;27.70;18.20;;;;;;5005670;28;20059;-64
2022/05/06 08:15:47;;;;;;;15.75;2.88;;;27.20;19.00;;;;;;5021053;28;20539;-65
2022/05/06 08:18:13;;;;;;;16.30;2.97;;;27.10;19.30;;;;;;5018969;28;20535;-66
2022/05/06 08:20:40;;;;;;;15.95;2.90;;;27.00;19.20;;;;;;5007579;28;20537;-65
2022/05/06 08:23:07;;;;;;;12.65;2.90;;;27.00;19.20;;;;;;5020211;28;20774;-64
2022/05/06 08:25:34;;;;;;;19.77;3.13;;;26.90;19.20;;;;;;5017573;28;20120;-67
2022/05/06 08:28:00;;;;;;;16.98;2.88;;;26.90;19.40;;;;;;5019718;28;20088;-65
2022/05/06 08:30:27;;;;;;;12.05;2.50;;;26.90;19.70;;;;;;5020996;28;20156;-64
2022/05/06 08:32:53;;;;;;;17.52;3.22;;;26.80;19.70;;;;;;5013789;28;20171;-64
2022/05/06 08:35:20;;;;;;;17.88;2.88;;;26.70;20.00;;;;;;5017969;28;20097;-69
2022/05/06 08:37:48;;;;;;;12.82;3.20;;;26.70;20.00;;;;;;5020606;28;20083;-64
2022/05/06 08:40:26;;;;;;;14.48;2.47;;;26.60;20.00;;;;;;5021514;28;20072;-63
2022/05/06 08:42:53;;;;;;;19.17;2.70;;;26.60;20.00;;;;;;5020512;28;20584;-64
2022/05/06 08:50:55;;;;;;;14.13;3.40;;;26.40;20.50;;;;;;5021159;28;20093;-65
2022/05/06 08:53:30;;;;;;;15.82;3.03;;;26.30;20.60;;;;;;5019203;28;20868;-65
2022/05/06 08:55:59;;;;;;;19.48;3.15;;;26.30;20.70;;;;;;5019831;28;20097;-63
2022/05/06 08:58:31;;;;;;;13.93;2.90;;;26.20;20.70;;;;;;5019947;28;20064;-65
2022/05/06 09:01:06;;;;;;;16.00;3.20;;;26.20;20.90;;;;;;5003501;28;20089;-65
2022/05/06 09:03:33;;;;;;;18.02;2.92;;;26.10;21.40;;;;;;5005042;28;20083;-64
2022/05/06 09:06:00;;;;;;;15.18;3.20;;;26.10;21.50;;;;;;5021395;28;20070;-65
2022/05/06 09:08:42;;;;;;;13.70;2.90;;;26.10;21.90;;;;;;5020106;28;20490;-64
2022/05/06 09:11:09;;;;;;;16.17;3.00;;;26.00;21.90;;;;;;5019277;28;20077;-64
2022/05/06 09:13:36;;;;;;;14.05;3.00;;;25.90;22.10;;;;;;5020065;28;20080;-64
2022/05/06 09:19:28;;;;;;;22.15;3.60;;;25.80;22.70;;;;;;5024032;28;20551;-66
2022/05/06 09:22:03;;;;;;;16.27;3.22;;;25.70;22.30;;;;;;5024704;28;20135;-64
2022/05/06 09:24:31;;;;;;;17.45;2.95;;;25.70;22.20;;;;;;5025062;28;20080;-64
2022/05/06 09:27:08;;;;;;;8.88;2.92;;;25.60;22.10;;;;;;5019351;28;20074;-65
2022/05/06 09:29:38;;;;;;;;;;;25.50;22.10;;;;;;5008888;28;20079;-64
2022/05/06 09:32:17;;;;;;;13.05;2.72;;;25.50;22.20;;;;;;5024239;28;20014;-65
2022/05/06 09:34:45;;;;;;;14.45;2.83;;;25.40;22.20;;;;;;5022174;28;20164;-64
2022/05/06 09:37:12;;;;;;;11.98;2.72;;;25.40;22.10;;;;;;5023099;28;20106;-66
2022/05/06 09:39:38;;;;;;;11.93;2.47;;;25.40;22.10;;;;;;5022764;28;20062;-64
2022/05/06 09:42:06;;;;;;;13.20;2.85;;;25.40;21.80;;;;;;5024829;28;20556;-64
2022/05/06 09:44:33;;;;;;;11.65;2.55;;;25.40;21.50;;;;;;5023467;28;20102;-65
2022/05/06 09:47:11;;;;;;;13.13;2.70;;;25.40;21.40;;;;;;5006730;28;20067;-66
2022/05/06 09:49:42;;;;;;;10.05;2.60;;;25.40;21.60;;;;;;5024188;28;20098;-66
2022/05/06 09:52:17;;;;;;;14.15;2.55;;;25.40;21.70;;;;;;5019507;28;20122;-64
2022/05/06 09:54:46;;;;;;;13.77;2.70;;;25.40;21.70;;;;;;5022229;28;20149;-64
2022/05/06 09:57:15;;;;;;;14.95;2.92;;;25.30;21.70;;;;;;5024124;28;20067;-65
2022/05/06 09:59:42;;;;;;;16.45;2.35;;;25.20;21.80;;;;;;5004180;28;20103;-64
2022/05/06 10:02:10;;;;;;;19.83;3.10;;;25.10;22.30;;;;;;5023044;28;20567;-66
2022/05/06 10:04:38;;;;;;;11.57;2.50;;;25.10;22.30;;;;;;5024653;28;20094;-65
2022/05/06 10:07:12;;;;;;;15.45;3.08;;;25.00;22.30;;;;;;5003839;28;20093;-64
2022/05/06 10:09:47;;;;;;;15.20;2.65;;;25.00;22.20;;;;;;5020719;28;20547;-64
2022/05/06 10:12:15;;;;;;;20.60;3.08;;;24.90;22.50;;;;;;5022271;28;20100;-65
2022/05/06 10:14:43;;;;;;;17.50;2.53;;;24.90;23.10;;;;;;5021334;28;20128;-63
2022/05/06 10:17:10;;;;;;;18.25;2.90;;;24.80;22.90;;;;;;5021848;28;20068;-65
2022/05/06 10:19:37;;;;;;;13.70;2.75;;;24.70;23.10;;;;;;5019999;28;20084;-65
2022/05/06 10:22:03;;;;;;;12.57;3.00;;;24.70;23.50;;;;;;5025120;28;20966;-65
2022/05/06 10:24:49;;;;;;;11.30;2.40;;;24.60;23.30;;;;;;5021754;28;20073;-65
2022/05/06 10:33:16;;;;;;;21.60;3.58;;;24.30;23.80;;;;;;5022936;28;20168;-64
2022/05/06 10:35:47;;;;;;;23.73;4.03;;;24.20;23.40;;;;;;5018886;28;20107;-65
2022/05/06 10:38:22;;;;;;;26.17;4.32;;;24.20;23.80;;;;;;5021749;28;20210;-65
2022/05/06 10:41:02;;;;;;;22.55;4.53;;;24.20;23.80;;;;;;5023527;28;20075;-64
2022/05/06 10:43:41;;;;;;;32.42;5.97;;;24.10;23.90;;;;;;5019306;28;20110;-65
2022/05/06 10:46:08;;;;;;;37.53;6.90;;;24.10;24.10;;;;;;5022286;28;20553;-65
2022/05/06 10:48:35;;;;;;;35.08;8.77;;;24.00;24.30;;;;;;5020896;28;20099;-65
2022/05/06 10:51:21;;;;;;;49.83;8.98;;;24.10;24.90;;;;;;5017990;28;20068;-64
2022/05/06 10:53:47;;;;;;;57.25;10.85;;;24.00;25.00;;;;;;5021538;28;20087;-65
2022/05/06 10:56:17;;;;;;;53.47;10.88;;;23.90;25.30;;;;;;5021675;28;20614;-66
2022/05/06 10:58:44;;;;;;;44.67;10.23;;;23.90;25.60;;;;;;5018018;28;20081;-66
2022/05/06 11:01:16;;;;;;;42.80;10.98;;;23.90;25.50;;;;;;5022292;28;20071;-67
2022/05/06 11:03:55;;;;;;;48.17;12.45;;;23.90;25.70;;;;;;5037650;28;20135;-64
2022/05/06 11:06:23;;;;;;;64.00;12.93;;;23.80;26.20;;;;;;5023290;28;20149;-66
2022/05/06 11:08:49;;;;;;;52.90;12.40;;;23.80;26.60;;;;;;5022079;28;20073;-65
2022/05/06 11:11:19;;;;;;;74.25;14.30;;;23.70;25.90;;;;;;5023678;28;20097;-62
2022/05/06 11:13:47;;;;;;;63.08;14.43;;;23.70;26.00;;;;;;5019546;28;20535;-65
2022/05/06 11:16:17;;;;;;;65.32;14.95;;;23.70;26.80;;;;;;5006435;28;20558;-64
2022/05/06 11:18:48;;;;;;;65.07;16.27;;;23.60;27.00;;;;;;5021408;28;20072;-65
2022/05/06 11:21:22;;;;;;;59.63;15.55;;;23.50;27.20;;;;;;5021125;28;20105;-66
2022/05/06 11:23:49;;;;;;;64.93;15.80;;;23.50;27.60;;;;;;5022200;28;20262;-64
2022/05/06 11:26:29;;;;;;;69.88;14.35;;;23.40;27.90;;;;;;5024328;28;21418;-64
2022/05/06 11:29:04;;;;;;;63.40;14.57;;;23.30;28.10;;;;;;5019249;28;20411;-63
2022/05/06 11:31:30;;;;;;;65.60;15.90;;;23.20;28.20;;;;;;5005787;28;20552;-64
2022/05/06 11:34:04;;;;;;;73.53;15.70;;;23.10;28.30;;;;;;5019211;28;20100;-64
2022/05/06 11:36:31;;;;;;;66.40;16.35;;;23.00;28.60;;;;;;5020008;28;20081;-65
2022/05/06 11:38:58;;;;;;;72.93;15.80;;;22.90;28.70;;;;;;5020400;28;20075;-64
2022/05/06 11:41:25;;;;;;;74.93;16.90;;;22.90;29.20;;;;;;5020313;28;20077;-64
2022/05/06 11:44:02;;;;;;;63.70;16.63;;;22.90;29.60;;;;;;5020375;28;20076;-66
2022/05/06 11:49:24;;;;;;;59.67;15.65;;;22.80;29.60;;;;;;5021985;28;20104;-64
2022/05/06 11:51:53;;;;;;;58.40;16.33;;;22.90;30.20;;;;;;5021569;28;20091;-64
2022/05/06 11:54:19;;;;;;;59.45;15.57;;;22.80;30.10;;;;;;5016439;28;20089;-65
2022/05/06 11:56:47;;;;;;;64.53;14.77;;;22.60;30.00;;;;;;5002562;28;20068;-66
2022/05/06 11:59:16;;;;;;;67.72;15.05;;;22.60;30.70;;;;;;5006260;28;20530;-66
2022/05/06 12:01:42;;;;;;;68.82;15.32;;;22.60;31.00;;;;;;5021049;28;20183;-65
2022/05/06 12:04:10;;;;;;;63.75;14.63;;;22.50;31.30;;;;;;5007870;28;20085;-65
2022/05/06 12:06:38;;;;;;;62.50;14.27;;;22.50;31.40;;;;;;5021031;28;20084;-66
2022/05/06 12:09:18;;;;;;;65.10;13.65;;;22.50;31.40;;;;;;4991564;28;20075;-65
2022/05/06 12:11:46;;;;;;;58.08;14.25;;;22.50;31.20;;;;;;5020531;28;20113;-67
2022/05/06 12:14:17;;;;;;;52.75;14.35;;;22.50;32.50;;;;;;5020000;28;20127;-65
2022/05/06 12:17:04;;;;;;;61.30;13.85;;;22.40;32.40;;;;;;5020389;28;20065;-65
2022/05/06 12:19:37;;;;;;;;;;;22.40;32.40;;;;;;5015439;28;20434;-63
2022/05/06 12:22:13;;;;;;;52.65;13.23;;;22.50;32.50;;;;;;5018354;28;19970;-65
2022/05/06 12:24:55;;;;;;;72.75;14.32;;;22.40;32.60;;;;;;5020173;28;20086;-63
2022/05/06 12:27:27;;;;;;;55.88;14.05;;;22.40;32.60;;;;;;5021956;28;20523;-64
2022/05/06 12:29:56;;;;;;;54.53;13.18;;;22.40;32.60;;;;;;5021044;28;20911;-65
2022/05/06 12:32:23;;;;;;;49.72;13.85;;;22.40;32.80;;;;;;5020646;28;20135;-65
2022/05/06 12:35:04;;;;;;;53.67;14.45;;;22.30;32.50;;;;;;5018975;28;20150;-64
2022/05/06 12:37:30;;;;;;;68.55;13.73;;;22.30;33.10;;;;;;5019371;28;20069;-64
2022/05/06 12:40:00;;;;;;;48.53;12.65;;;22.20;33.30;;;;;;5018463;28;20085;-65
2022/05/06 12:42:27;;;;;;;54.72;13.43;;;22.20;33.50;;;;;;5021284;28;20080;-64
2022/05/06 12:44:53;;;;;;;70.43;14.15;;;22.10;34.20;;;;;;5003075;28;20080;-64
2022/05/06 12:50:09;;;;;;;50.25;14.35;;;22.00;34.30;;;;;;5017832;28;20104;-65
2022/05/06 12:52:37;;;;;;;70.75;13.27;;;22.00;34.50;;;;;;5041358;22;21175;-64
2022/05/06 12:55:04;;;;;;;85.57;15.10;;;21.90;34.40;;;;;;5011776;28;20547;-64
2022/05/06 12:57:31;;;;;;;68.45;13.20;;;21.90;34.90;;;;;;5020488;28;20084;-68
2022/05/06 12:59:57;;;;;;;83.38;14.65;;;21.90;35.20;;;;;;5022171;28;20096;-66
2022/05/06 13:02:24;;;;;;;56.95;13.02;;;21.90;35.30;;;;;;5006073;28;20148;-65
2022/05/06 13:04:50;;;;;;;74.90;12.38;;;21.80;35.60;;;;;;5019587;28;20073;-65
2022/05/06 13:07:17;;;;;;;67.20;13.07;;;21.90;35.60;;;;;;5021565;28;20081;-63
2022/05/06 13:09:43;;;;;;;80.15;15.48;;;21.80;35.60;;;;;;5019476;28;20069;-64
2022/05/06 13:12:10;;;;;;;68.53;14.60;;;21.80;36.10;;;;;;5019050;28;20081;-64
2022/05/06 13:14:37;;;;;;;81.57;15.02;;;21.80;36.20;;;;;;5019975;28;20111;-64
2022/05/06 13:17:04;;;;;;;65.72;13.63;;;21.80;36.50;;;;;;5020618;28;20074;-64
2022/05/06 13:19:31;;;;;;;82.20;14.38;;;21.90;36.90;;;;;;5004679;28;20092;-65
2022/05/06 13:21:58;;;;;;;55.95;13.05;;;21.90;37.20;;;;;;5019137;28;20080;-63
2022/05/06 13:24:24;;;;;;;73.57;12.52;;;22.00;37.70;;;;;;5002951;28;20068;-65
2022/05/06 13:26:50;;;;;;;77.88;12.32;;;22.00;38.10;;;;;;5018273;28;20558;-64
2022/05/06 13:29:17;;;;;;;82.13;12.55;;;21.90;38.60;;;;;;5018543;28;20089;-65
2022/05/06 13:31:43;;;;;;;87.57;13.07;;;21.80;39.20;;;;;;5026675;28;20689;-64
2022/05/06 13:34:10;;;;;;;83.85;13.50;;;21.90;39.90;;;;;;5021837;28;20102;-64
2022/05/06 13:36:38;;;;;;;81.28;13.63;;;21.90;40.00;;;;;;5021607;28;20084;-65
2022/05/06 13:39:05;;;;;;;70.35;11.65;;;22.00;40.10;;;;;;5020360;28;20112;-65
2022/05/06 13:41:31;;;;;;;79.78;11.65;;;22.00;40.40;;;;;;5021180;28;20080;-64
2022/05/06 13:43:57;;;;;;;57.78;9.15;;;22.00;40.80;;;;;;5020772;28;20085;-63